Time;durP1;ratioP1;P1;durP2;ratioP2;P2;SDS_P1;SDS_P2;PMS_P1;PMS_P2;Temp;Humidity;BMP_temperature;BMP_pressure;BME280_temperature;BME280_humidity;BME280_pressure;Samples;Min_cycle;Max_cycle;Signal;HPM_P1;HPM_P2
2021/08/24 00:00:26;;;;;;;5.45;2.35;;;16.70;99.90;;;;;;2072072;28;20084;-69
2021/08/24 00:01:27;;;;;;;5.05;2.67;;;16.80;99.90;;;;;;2072170;28;20482;-69
2021/08/24 00:02:27;;;;;;;7.20;2.70;;;16.70;99.90;;;;;;2071640;28;20441;-69
2021/08/24 00:03:28;;;;;;;3.25;2.45;;;16.70;99.90;;;;;;2071735;28;20033;-69
2021/08/24 00:04:29;;;;;;;4.95;2.65;;;16.70;99.90;;;;;;2071991;28;20029;-69
2021/08/24 00:05:33;;;;;;;2.65;2.00;;;16.70;99.90;;;;;;2072326;28;20362;-69
2021/08/24 00:06:34;;;;;;;3.17;1.92;;;16.70;99.90;;;;;;2072144;28;20444;-69
2021/08/24 00:07:34;;;;;;;2.90;2.42;;;16.70;99.90;;;;;;2071955;28;20115;-69
2021/08/24 00:08:35;;;;;;;4.32;2.65;;;16.70;99.90;;;;;;2072046;28;20036;-69
2021/08/24 00:09:36;;;;;;;2.42;2.22;;;16.70;99.90;;;;;;2073266;28;20034;-69
2021/08/24 00:10:44;;;;;;;3.13;2.25;;;16.80;99.90;;;;;;2071889;28;20026;-69
2021/08/24 00:11:46;;;;;;;2.85;2.55;;;16.70;99.90;;;;;;2071945;28;20079;-69
2021/08/24 00:12:46;;;;;;;6.15;2.17;;;16.70;99.90;;;;;;2071524;28;20429;-69
2021/08/24 00:13:47;;;;;;;2.42;2.08;;;16.70;99.90;;;;;;2071784;28;20083;-69
2021/08/24 00:14:47;;;;;;;2.95;2.22;;;16.70;99.90;;;;;;2072190;28;20026;-69
2021/08/24 00:15:49;;;;;;;2.30;2.00;;;16.70;99.90;;;;;;2071795;28;20378;-69
2021/08/24 00:16:50;;;;;;;3.00;2.30;;;16.70;99.90;;;;;;2072159;28;20108;-69
2021/08/24 00:19:48;;;;;;;2.60;2.30;;;16.70;99.90;;;;;;2071952;28;20018;-69
2021/08/24 00:20:51;;;;;;;4.28;2.35;;;16.60;99.90;;;;;;2071374;28;20026;-69
2021/08/24 00:21:52;;;;;;;3.33;2.47;;;16.70;99.90;;;;;;2071161;28;20060;-69
2021/08/24 00:22:53;;;;;;;4.03;2.13;;;16.70;99.90;;;;;;2071529;28;20084;-69
2021/08/24 00:23:54;;;;;;;3.40;2.20;;;16.70;99.90;;;;;;2071718;28;20045;-69
2021/08/24 00:24:54;;;;;;;2.40;2.20;;;16.70;99.90;;;;;;2072003;28;20030;-69
2021/08/24 00:25:57;;;;;;;5.25;2.35;;;16.70;99.90;;;;;;2077965;28;20425;-69
2021/08/24 00:26:58;;;;;;;3.20;2.58;;;16.60;99.90;;;;;;2076869;28;20701;-69
2021/08/24 00:27:58;;;;;;;3.97;2.40;;;16.70;99.90;;;;;;2071685;28;20080;-69
2021/08/24 00:28:59;;;;;;;2.85;2.08;;;16.70;99.90;;;;;;2072116;28;20788;-69
2021/08/24 00:29:59;;;;;;;3.53;2.10;;;16.60;99.90;;;;;;2070062;28;20538;-69
2021/08/24 00:31:00;;;;;;;4.82;2.42;;;16.70;99.90;;;;;;2071714;28;20322;-69
2021/08/24 00:32:01;;;;;;;4.85;2.22;;;16.60;99.90;;;;;;2068599;28;20019;-69
2021/08/24 00:33:01;;;;;;;2.60;2.00;;;16.70;99.90;;;;;;2069505;28;20022;-69
2021/08/24 00:34:02;;;;;;;2.60;2.05;;;16.60;99.90;;;;;;2071587;28;20024;-69
2021/08/24 00:35:03;;;;;;;3.92;2.00;;;16.60;99.90;;;;;;2071853;28;20022;-69
2021/08/24 00:36:03;;;;;;;2.40;2.10;;;16.60;99.90;;;;;;2071704;28;20037;-69
2021/08/24 00:37:04;;;;;;;2.65;2.45;;;16.60;99.90;;;;;;2071667;28;20068;-69
2021/08/24 00:38:14;;;;;;;3.25;2.25;;;16.60;99.90;;;;;;2071643;28;20025;-69
2021/08/24 00:39:14;;;;;;;3.80;2.25;;;16.60;99.90;;;;;;2071746;28;20026;-69
2021/08/24 00:40:16;;;;;;;2.90;2.28;;;16.60;99.90;;;;;;2071807;28;20032;-69
2021/08/24 00:41:17;;;;;;;3.78;2.30;;;16.60;99.90;;;;;;2071709;28;20096;-69
2021/08/24 00:42:19;;;;;;;4.85;2.58;;;16.60;99.90;;;;;;2078556;28;20072;-69
2021/08/24 00:43:21;;;;;;;3.38;2.28;;;16.60;99.90;;;;;;2074563;28;20549;-69
2021/08/24 00:44:21;;;;;;;3.88;2.40;;;16.60;99.90;;;;;;2071860;28;20041;-69
2021/08/24 00:45:22;;;;;;;3.38;2.40;;;16.60;99.90;;;;;;2071840;28;20053;-69
2021/08/24 00:46:43;;;;;;;3.28;2.20;;;16.60;99.90;;;;;;2071736;28;20041;-69
2021/08/24 00:47:47;;;;;;;3.03;2.00;;;16.60;99.90;;;;;;2072041;28;20033;-69
2021/08/24 00:48:48;;;;;;;2.47;2.13;;;16.50;99.90;;;;;;2071624;28;20546;-69
2021/08/24 00:49:50;;;;;;;3.75;2.55;;;16.50;99.90;;;;;;2071781;28;20394;-69
2021/08/24 00:50:51;;;;;;;3.58;2.45;;;16.50;99.90;;;;;;2071251;28;20030;-69
2021/08/24 00:52:00;;;;;;;2.47;2.13;;;16.50;99.90;;;;;;2071697;28;20022;-69
2021/08/24 00:53:09;;;;;;;2.60;2.38;;;16.50;99.90;;;;;;2071318;28;20026;-69
2021/08/24 00:54:16;;;;;;;3.10;2.55;;;16.50;99.90;;;;;;2071959;28;20021;-69
2021/08/24 00:55:18;;;;;;;2.85;2.53;;;16.50;99.90;;;;;;2071445;28;20029;-69
2021/08/24 00:56:19;;;;;;;2.38;2.17;;;16.40;99.90;;;;;;2071570;28;20373;-69
2021/08/24 00:57:23;;;;;;;5.50;2.53;;;16.40;99.90;;;;;;2071691;28;20033;-69
2021/08/24 00:58:23;;;;;;;2.83;2.22;;;16.40;99.90;;;;;;2078848;28;20643;-69
2021/08/24 00:59:24;;;;;;;4.00;2.35;;;16.40;99.90;;;;;;2076258;28;20431;-69
2021/08/24 01:00:30;;;;;;;3.65;2.38;;;16.40;99.90;;;;;;2071881;28;20366;-69
2021/08/24 01:01:30;;;;;;;2.35;2.15;;;16.40;99.90;;;;;;2071180;28;20032;-69
2021/08/24 01:02:31;;;;;;;2.67;2.47;;;16.40;99.90;;;;;;2071624;28;20044;-68
2021/08/24 01:03:37;;;;;;;3.75;2.45;;;16.40;99.90;;;;;;2071275;28;20109;-69
2021/08/24 01:04:38;;;;;;;5.38;2.30;;;16.40;99.90;;;;;;2071912;28;20030;-69
2021/08/24 01:05:41;;;;;;;7.15;2.72;;;16.40;99.90;;;;;;2071253;28;20038;-69
2021/08/24 01:07:04;;;;;;;4.45;2.55;;;16.40;99.90;;;;;;2071719;28;20671;-69
2021/08/24 01:08:18;;;;;;;2.40;1.90;;;16.40;99.90;;;;;;2071580;28;20030;-69
2021/08/24 01:09:22;;;;;;;4.32;2.08;;;16.40;99.90;;;;;;2071841;28;20068;-69
2021/08/24 01:10:32;;;;;;;2.17;1.98;;;16.40;99.90;;;;;;2070792;28;20123;-69
2021/08/24 01:11:37;;;;;;;3.33;2.28;;;16.30;99.90;;;;;;2070764;28;20018;-69
2021/08/24 01:12:58;;;;;;;3.55;2.60;;;16.30;99.90;;;;;;2071662;28;20025;-69
2021/08/24 01:14:18;;;;;;;3.17;2.22;;;16.30;99.90;;;;;;2072743;28;20029;-69
2021/08/24 01:15:40;;;;;;;;;;;16.30;99.90;;;;;;2078873;28;20510;-69
2021/08/24 01:16:46;;;;;;;2.85;2.42;;;16.30;99.90;;;;;;2071554;28;19967;-69
2021/08/24 01:17:56;;;;;;;6.30;2.78;;;16.20;99.90;;;;;;2071646;28;20112;-69
2021/08/24 01:19:16;;;;;;;3.25;2.40;;;16.20;99.90;;;;;;2071703;28;20029;-69
2021/08/24 01:20:54;;;;;;;4.00;2.42;;;16.20;99.90;;;;;;2071563;28;20362;-69
2021/08/24 01:22:21;;;;;;;4.53;2.92;;;16.20;99.90;;;;;;2071230;28;20037;-69
2021/08/24 01:23:48;;;;;;;3.67;2.33;;;16.20;99.90;;;;;;2071276;28;20353;-69
2021/08/24 01:25:03;;;;;;;7.13;2.72;;;16.20;99.90;;;;;;2063733;28;20117;-69
2021/08/24 01:26:16;;;;;;;2.45;2.25;;;16.20;99.90;;;;;;2071197;28;20030;-69
2021/08/24 01:27:33;;;;;;;4.57;2.65;;;16.20;99.90;;;;;;2071389;28;20022;-69
2021/08/24 01:29:08;;;;;;;3.65;2.13;;;16.20;99.90;;;;;;2071796;28;20501;-69
2021/08/24 01:30:23;;;;;;;3.42;2.28;;;16.10;99.90;;;;;;2069092;28;20113;-69
2021/08/24 01:31:42;;;;;;;4.03;2.40;;;16.10;99.90;;;;;;2071396;28;20072;-69
2021/08/24 01:33:01;;;;;;;2.80;2.53;;;16.10;99.90;;;;;;2063379;28;20038;-69
2021/08/24 01:34:19;;;;;;;3.03;2.20;;;16.10;99.90;;;;;;2071085;28;20054;-69
2021/08/24 01:35:47;;;;;;;2.17;1.98;;;16.10;99.90;;;;;;2071195;28;20031;-69
2021/08/24 01:36:50;;;;;;;2.92;2.58;;;16.10;99.90;;;;;;2071461;28;20017;-69
2021/08/24 01:38:20;;;;;;;2.60;1.92;;;16.10;99.90;;;;;;2070961;28;20022;-69
2021/08/24 01:39:25;;;;;;;;;;;16.10;99.90;;;;;;2069080;28;20022;-69
2021/08/24 01:40:39;;;;;;;3.80;2.30;;;16.00;99.90;;;;;;2071575;28;19964;-69
2021/08/24 01:42:16;;;;;;;2.92;2.28;;;16.00;99.90;;;;;;2071058;28;20037;-69
2021/08/24 01:43:26;;;;;;;2.63;2.25;;;16.00;99.90;;;;;;2071250;28;20132;-69
2021/08/24 01:44:33;;;;;;;4.03;2.67;;;16.00;99.90;;;;;;2078316;28;20360;-69
2021/08/24 01:45:46;;;;;;;2.85;2.28;;;16.00;99.90;;;;;;2071565;28;20060;-69
2021/08/24 01:47:04;;;;;;;4.68;2.47;;;16.00;99.90;;;;;;2071780;28;20347;-69
2021/08/24 01:48:12;;;;;;;3.42;2.35;;;16.00;99.90;;;;;;2071747;28;20026;-69
2021/08/24 01:49:15;;;;;;;3.05;2.60;;;16.00;99.90;;;;;;2071651;28;20030;-69
2021/08/24 01:50:51;;;;;;;3.90;2.60;;;16.00;99.90;;;;;;2071136;28;20478;-69
2021/08/24 01:51:54;;;;;;;3.38;2.53;;;16.00;99.90;;;;;;2067079;28;20033;-69
2021/08/24 01:53:28;;;;;;;3.95;2.63;;;15.90;99.90;;;;;;2071076;28;20143;-69
2021/08/24 01:54:40;;;;;;;3.33;2.00;;;15.90;99.90;;;;;;2071533;28;20052;-69
2021/08/24 01:55:56;;;;;;;4.38;2.10;;;15.90;99.90;;;;;;2072623;28;20682;-69
2021/08/24 01:56:59;;;;;;;2.80;2.22;;;15.90;99.90;;;;;;2064891;28;20019;-69
2021/08/24 01:58:12;;;;;;;4.38;2.35;;;15.80;99.90;;;;;;2072175;28;20374;-69
2021/08/24 01:59:35;;;;;;;2.88;1.98;;;15.90;99.90;;;;;;2072779;28;20497;-69
2021/08/24 02:00:40;;;;;;;3.00;2.38;;;15.80;99.90;;;;;;2073262;28;20079;-69
2021/08/24 02:01:56;;;;;;;4.20;2.67;;;15.80;99.90;;;;;;2072895;28;20513;-69
2021/08/24 02:03:06;;;;;;;3.33;2.65;;;15.80;99.90;;;;;;2072450;28;20030;-69
2021/08/24 02:04:15;;;;;;;3.95;2.55;;;15.80;99.90;;;;;;2073252;28;20493;-69
2021/08/24 02:05:27;;;;;;;2.88;2.60;;;15.80;99.90;;;;;;2073207;28;20497;-69
2021/08/24 02:06:41;;;;;;;3.42;2.05;;;15.80;99.90;;;;;;2072950;28;20032;-69
2021/08/24 02:07:44;;;;;;;2.83;2.28;;;15.70;99.90;;;;;;2073100;28;20053;-69
2021/08/24 02:08:51;;;;;;;2.80;2.25;;;15.70;99.90;;;;;;2072614;28;20033;-69
2021/08/24 02:09:55;;;;;;;3.75;2.17;;;15.70;99.90;;;;;;2073143;28;20026;-69
2021/08/24 02:10:58;;;;;;;2.75;2.53;;;15.70;99.90;;;;;;2072736;28;20084;-69
2021/08/24 02:11:59;;;;;;;2.80;2.22;;;15.70;99.90;;;;;;2080619;28;20073;-69
2021/08/24 02:13:02;;;;;;;5.53;2.78;;;15.70;99.90;;;;;;2072130;28;20080;-69
2021/08/24 02:14:09;;;;;;;3.08;2.70;;;15.70;99.90;;;;;;2072532;28;20020;-69
2021/08/24 02:15:10;;;;;;;4.47;2.40;;;15.70;99.90;;;;;;2072632;28;20857;-69
2021/08/24 02:16:16;;;;;;;3.63;2.40;;;15.70;99.90;;;;;;2073161;28;20366;-69
2021/08/24 02:17:21;;;;;;;3.83;3.10;;;15.70;99.90;;;;;;2072895;28;20470;-69
2021/08/24 02:18:30;;;;;;;1.85;1.73;;;15.70;99.90;;;;;;2072932;28;20105;-69
2021/08/24 02:19:37;;;;;;;4.88;2.67;;;15.70;99.90;;;;;;2072323;28;20033;-69
2021/08/24 02:20:43;;;;;;;5.30;2.70;;;15.70;99.90;;;;;;2072858;28;20030;-69
2021/08/24 02:21:49;;;;;;;2.92;2.33;;;15.70;99.90;;;;;;2072630;28;20026;-69
2021/08/24 02:22:55;;;;;;;2.42;2.22;;;15.60;99.90;;;;;;2071911;28;20112;-69
2021/08/24 02:24:00;;;;;;;2.40;1.92;;;15.60;99.90;;;;;;2071271;28;20109;-69
2021/08/24 02:25:07;;;;;;;5.03;2.42;;;15.60;99.90;;;;;;2068767;28;20029;-69
2021/08/24 02:26:10;;;;;;;5.07;2.63;;;15.60;99.90;;;;;;2072691;28;20013;-69
2021/08/24 02:27:17;;;;;;;4.25;2.40;;;15.60;99.90;;;;;;2072466;28;20062;-69
2021/08/24 02:28:40;;;;;;;5.65;2.90;;;15.60;99.90;;;;;;2072660;28;20433;-69
2021/08/24 02:29:40;;;;;;;2.85;2.17;;;15.60;99.90;;;;;;2062450;28;20046;-69
2021/08/24 02:30:59;;;;;;;5.07;2.53;;;15.50;99.90;;;;;;2073057;28;20117;-69
2021/08/24 02:32:05;;;;;;;3.78;2.15;;;15.50;99.90;;;;;;2072281;28;20022;-69
2021/08/24 02:33:06;;;;;;;2.53;2.30;;;15.50;99.90;;;;;;2072499;28;20362;-69
2021/08/24 02:34:26;;;;;;;2.90;2.53;;;15.50;99.90;;;;;;2072815;28;20022;-69
2021/08/24 02:35:43;;;;;;;2.90;2.55;;;15.50;99.90;;;;;;2073284;28;20504;-69
2021/08/24 02:36:55;;;;;;;3.13;2.75;;;15.50;99.90;;;;;;2072758;28;20026;-69
2021/08/24 02:38:44;;;;;;;3.53;2.53;;;15.40;99.90;;;;;;2072392;28;20026;-69
2021/08/24 02:40:04;;;;;;;2.53;2.00;;;15.40;99.90;;;;;;2057967;28;20099;-69
2021/08/24 02:41:18;;;;;;;2.67;2.30;;;15.30;99.90;;;;;;2072838;28;20709;-69
2021/08/24 02:42:42;;;;;;;2.60;2.40;;;15.30;99.90;;;;;;2072831;28;20197;-69
2021/08/24 02:43:57;;;;;;;2.53;2.25;;;15.30;99.90;;;;;;2072398;28;20042;-69
2021/08/24 02:45:14;;;;;;;2.15;2.03;;;15.30;99.90;;;;;;2072309;28;20466;-69
2021/08/24 02:46:19;;;;;;;3.70;2.17;;;15.30;99.90;;;;;;2072694;28;20022;-69
2021/08/24 02:47:22;;;;;;;4.88;2.60;;;15.20;99.90;;;;;;2073094;28;20037;-69
2021/08/24 02:48:26;;;;;;;6.13;2.45;;;15.20;99.90;;;;;;2072662;28;20048;-69
2021/08/24 02:49:31;;;;;;;3.47;2.42;;;15.20;99.90;;;;;;2072811;28;20034;-69
2021/08/24 02:50:33;;;;;;;3.25;2.65;;;15.20;99.90;;;;;;2074455;28;20022;-69
2021/08/24 02:51:36;;;;;;;4.20;2.70;;;15.20;99.90;;;;;;2073805;28;20103;-69
2021/08/24 02:52:37;;;;;;;3.47;2.45;;;15.20;99.90;;;;;;2072046;28;20029;-69
2021/08/24 02:53:40;;;;;;;2.92;2.63;;;15.20;99.90;;;;;;2073026;28;20374;-69
2021/08/24 02:54:49;;;;;;;3.00;2.53;;;15.20;99.90;;;;;;2072402;28;20018;-69
2021/08/24 02:55:50;;;;;;;4.22;2.65;;;15.20;99.90;;;;;;2072586;28;20030;-69
2021/08/24 02:56:51;;;;;;;3.78;2.70;;;15.10;99.90;;;;;;2072344;28;20057;-69
2021/08/24 02:57:52;;;;;;;3.67;2.88;;;15.10;99.90;;;;;;2072585;28;20030;-69
2021/08/24 02:58:52;;;;;;;3.13;2.40;;;15.20;99.90;;;;;;2072792;28;20022;-69
2021/08/24 02:59:53;;;;;;;2.72;2.10;;;15.10;99.90;;;;;;2072711;28;20108;-69
2021/08/24 03:00:53;;;;;;;5.10;2.88;;;15.10;99.90;;;;;;2071700;28;20034;-69
2021/08/24 03:01:55;;;;;;;3.47;2.65;;;15.10;99.90;;;;;;2071716;28;20434;-69
2021/08/24 03:02:55;;;;;;;4.47;2.70;;;15.10;99.90;;;;;;2069775;28;20034;-69
2021/08/24 03:03:56;;;;;;;5.07;2.85;;;15.10;99.90;;;;;;2072593;28;20505;-69
2021/08/24 03:04:57;;;;;;;3.13;2.42;;;15.10;99.90;;;;;;2074959;28;20076;-69
2021/08/24 03:05:59;;;;;;;3.00;2.53;;;15.10;99.90;;;;;;2076530;28;20049;-69
2021/08/24 03:07:05;;;;;;;5.22;2.72;;;15.10;99.90;;;;;;2072518;28;20530;-69
2021/08/24 03:08:07;;;;;;;3.63;2.85;;;15.10;99.90;;;;;;2072581;28;20026;-69
2021/08/24 03:09:10;;;;;;;2.72;2.50;;;15.00;99.90;;;;;;2072181;28;20415;-69
2021/08/24 03:10:17;;;;;;;2.88;2.53;;;15.00;99.90;;;;;;2072448;28;20061;-69
2021/08/24 03:11:22;;;;;;;5.07;2.63;;;15.00;99.90;;;;;;2072213;28;20148;-69
2021/08/24 03:12:48;;;;;;;3.58;2.75;;;15.00;99.90;;;;;;2072240;28;20026;-69
2021/08/24 03:13:55;;;;;;;2.65;2.20;;;14.90;99.90;;;;;;2072239;28;20026;-69
2021/08/24 03:15:04;;;;;;;3.17;2.58;;;14.90;99.90;;;;;;2072566;28;20097;-69
2021/08/24 03:16:12;;;;;;;3.22;2.63;;;14.90;99.90;;;;;;2072504;28;20032;-69
2021/08/24 03:17:25;;;;;;;2.95;2.50;;;14.90;99.90;;;;;;2072526;28;20025;-69
2021/08/24 03:18:33;;;;;;;7.40;2.85;;;14.90;99.90;;;;;;2072750;28;20547;-69
2021/08/24 03:19:36;;;;;;;3.35;3.05;;;14.80;99.90;;;;;;2072324;28;20423;-69
2021/08/24 03:20:42;;;;;;;3.45;2.63;;;14.80;99.90;;;;;;2072041;28;20510;-69
2021/08/24 03:21:44;;;;;;;2.90;2.47;;;14.80;99.90;;;;;;2070240;28;20109;-69
2021/08/24 03:22:46;;;;;;;6.45;2.95;;;14.80;99.90;;;;;;2072005;28;20037;-69
2021/08/24 03:23:49;;;;;;;4.80;2.85;;;14.80;99.90;;;;;;2072008;28;20025;-69
2021/08/24 03:24:50;;;;;;;3.25;2.88;;;14.80;99.90;;;;;;2072575;28;20041;-69
2021/08/24 03:25:52;;;;;;;4.40;2.80;;;14.80;99.90;;;;;;2072330;28;20458;-69
2021/08/24 03:26:53;;;;;;;2.53;2.33;;;14.70;99.90;;;;;;2072769;28;20033;-69
2021/08/24 03:27:54;;;;;;;2.80;2.60;;;14.80;99.90;;;;;;2072105;28;20120;-69
2021/08/24 03:28:55;;;;;;;3.03;2.80;;;14.80;99.90;;;;;;2069612;28;20053;-69
2021/08/24 03:30:01;;;;;;;4.63;3.00;;;14.70;99.90;;;;;;2072155;28;20032;-69
2021/08/24 03:31:02;;;;;;;3.17;2.13;;;14.70;99.90;;;;;;2072371;28;20026;-69
2021/08/24 03:32:05;;;;;;;2.33;2.13;;;14.70;99.90;;;;;;2071921;28;20026;-69
2021/08/24 03:33:06;;;;;;;3.50;2.85;;;14.70;99.90;;;;;;2079111;28;20673;-69
2021/08/24 03:34:07;;;;;;;2.60;2.40;;;14.70;99.90;;;;;;2071927;28;20393;-69
2021/08/24 03:35:09;;;;;;;3.60;2.70;;;14.70;99.90;;;;;;2072387;28;20022;-69
2021/08/24 03:36:10;;;;;;;4.15;2.35;;;14.70;99.90;;;;;;2072062;28;20910;-69
2021/08/24 03:37:10;;;;;;;3.20;2.90;;;14.70;99.90;;;;;;2071763;28;20382;-69
2021/08/24 03:38:11;;;;;;;2.80;2.50;;;14.60;99.90;;;;;;2071645;28;20466;-69
2021/08/24 03:39:12;;;;;;;3.00;2.80;;;14.60;99.90;;;;;;2072311;28;20093;-69
2021/08/24 03:40:13;;;;;;;3.22;2.60;;;14.60;99.90;;;;;;2072164;28;20022;-69
2021/08/24 03:41:14;;;;;;;3.03;2.72;;;14.60;99.90;;;;;;2072479;28;20169;-69
2021/08/24 03:42:15;;;;;;;4.40;2.72;;;14.60;99.90;;;;;;2072349;28;20034;-69
2021/08/24 03:43:16;;;;;;;3.15;2.85;;;14.60;99.90;;;;;;2071520;28;20473;-69
2021/08/24 03:44:16;;;;;;;3.30;2.50;;;14.60;99.90;;;;;;2072054;28;20033;-69
2021/08/24 03:45:17;;;;;;;2.65;2.28;;;14.60;99.90;;;;;;2071963;28;20144;-69
2021/08/24 03:46:18;;;;;;;3.10;2.58;;;14.50;99.90;;;;;;2073267;28;20025;-69
2021/08/24 03:47:18;;;;;;;2.58;2.28;;;14.50;99.90;;;;;;2072500;28;20018;-69
2021/08/24 03:48:19;;;;;;;3.30;2.95;;;14.50;99.90;;;;;;2072289;28;20022;-69
2021/08/24 03:49:19;;;;;;;2.72;2.53;;;14.50;99.90;;;;;;2071991;28;20041;-69
2021/08/24 03:50:20;;;;;;;4.95;2.85;;;14.50;99.90;;;;;;2069991;28;20077;-69
2021/08/24 03:51:21;;;;;;;4.35;3.25;;;14.50;99.90;;;;;;2071835;28;20501;-70
2021/08/24 03:52:22;;;;;;;3.75;2.63;;;14.40;99.90;;;;;;2072367;28;20112;-69
2021/08/24 03:53:22;;;;;;;4.80;3.03;;;14.50;99.90;;;;;;2071700;28;20030;-69
2021/08/24 03:54:23;;;;;;;3.42;2.78;;;14.50;99.90;;;;;;2072206;28;20086;-69
2021/08/24 03:55:24;;;;;;;4.07;2.70;;;14.40;99.90;;;;;;2071893;28;20022;-69
2021/08/24 03:56:24;;;;;;;3.50;3.20;;;14.40;99.90;;;;;;2072221;28;20080;-69
2021/08/24 03:57:25;;;;;;;6.18;3.20;;;14.40;99.90;;;;;;2072166;28;20026;-69
2021/08/24 03:58:25;;;;;;;2.75;2.42;;;14.40;99.90;;;;;;2072394;28;20517;-69
2021/08/24 03:59:26;;;;;;;3.97;2.83;;;14.40;99.90;;;;;;2072155;28;20469;-69
2021/08/24 04:00:26;;;;;;;3.88;2.60;;;14.40;99.90;;;;;;2077642;28;20041;-69
2021/08/24 04:01:27;;;;;;;3.25;2.92;;;14.40;99.90;;;;;;2071715;28;20034;-69
2021/08/24 04:02:27;;;;;;;4.82;3.00;;;14.40;99.90;;;;;;2071870;28;20597;-70
2021/08/24 04:03:28;;;;;;;3.25;2.95;;;14.40;99.90;;;;;;2070961;28;20056;-69
2021/08/24 04:04:29;;;;;;;6.57;3.20;;;14.40;99.90;;;;;;2071026;28;20029;-69
2021/08/24 04:05:29;;;;;;;4.13;3.25;;;14.30;99.90;;;;;;2067893;28;20038;-69
2021/08/24 04:06:30;;;;;;;3.15;2.83;;;14.30;99.90;;;;;;2070760;28;20038;-69
2021/08/24 04:07:31;;;;;;;3.42;2.80;;;14.30;99.90;;;;;;2071749;28;20390;-69
2021/08/24 04:08:32;;;;;;;5.63;3.60;;;14.30;99.90;;;;;;2072291;28;20033;-69
2021/08/24 04:09:32;;;;;;;4.80;3.15;;;14.30;99.90;;;;;;2072153;28;20105;-69
2021/08/24 04:10:33;;;;;;;3.80;3.35;;;14.30;99.90;;;;;;2071955;28;20030;-69
2021/08/24 04:11:34;;;;;;;3.80;3.28;;;14.30;99.90;;;;;;2071382;28;20093;-69
2021/08/24 04:12:35;;;;;;;3.47;2.92;;;14.30;99.90;;;;;;2071777;28;20088;-69
2021/08/24 04:13:35;;;;;;;3.17;2.88;;;14.30;99.90;;;;;;2072562;28;20462;-69
2021/08/24 04:14:36;;;;;;;4.00;3.25;;;14.30;99.90;;;;;;2071555;28;20394;-69
2021/08/24 04:15:37;;;;;;;4.40;3.80;;;14.30;99.90;;;;;;2070009;28;20409;-69
2021/08/24 04:16:37;;;;;;;6.15;4.32;;;14.20;99.90;;;;;;2064823;28;20053;-69
2021/08/24 04:17:39;;;;;;;5.63;4.05;;;14.20;99.90;;;;;;2070902;28;20061;-69
2021/08/24 04:18:41;;;;;;;4.07;3.67;;;14.20;99.90;;;;;;2071695;28;20076;-69
2021/08/24 04:19:42;;;;;;;5.38;4.03;;;14.20;99.90;;;;;;2064438;28;20530;-69
2021/08/24 04:20:43;;;;;;;4.97;3.92;;;14.20;99.90;;;;;;2071672;28;20245;-69
2021/08/24 04:21:44;;;;;;;5.28;4.78;;;14.20;99.90;;;;;;2071924;28;20029;-69
2021/08/24 04:22:47;;;;;;;3.63;3.33;;;14.20;99.90;;;;;;2063363;28;20027;-69
2021/08/24 04:23:49;;;;;;;4.22;3.70;;;14.20;99.90;;;;;;2067177;28;20371;-69
2021/08/24 04:24:49;;;;;;;6.10;3.90;;;14.20;99.90;;;;;;2071465;28;20444;-69
2021/08/24 04:25:50;;;;;;;5.18;4.13;;;14.20;99.90;;;;;;2071808;28;20103;-69
2021/08/24 04:26:51;;;;;;;5.35;4.63;;;14.20;99.90;;;;;;2072057;28;20034;-69
2021/08/24 04:27:51;;;;;;;5.88;4.55;;;14.20;99.90;;;;;;2078300;28;20116;-69
2021/08/24 04:28:52;;;;;;;6.47;4.18;;;14.20;99.90;;;;;;2074644;28;20036;-69
2021/08/24 04:29:52;;;;;;;3.78;3.47;;;14.20;99.90;;;;;;2071937;28;20081;-69
2021/08/24 04:30:53;;;;;;;3.67;3.38;;;14.20;99.90;;;;;;2071955;28;20702;-69
2021/08/24 04:31:55;;;;;;;4.32;3.92;;;14.20;99.90;;;;;;2071869;28;20025;-69
2021/08/24 04:32:56;;;;;;;3.95;3.63;;;14.20;99.90;;;;;;2071469;28;20022;-69
2021/08/24 04:33:58;;;;;;;4.50;4.10;;;14.20;99.90;;;;;;2070999;28;20026;-69
2021/08/24 04:34:58;;;;;;;3.38;3.08;;;14.20;99.90;;;;;;2071763;28;20022;-69
2021/08/24 04:35:59;;;;;;;4.63;4.03;;;14.20;99.90;;;;;;2068474;28;20470;-69
2021/08/24 04:37:00;;;;;;;4.32;3.80;;;14.20;99.90;;;;;;2071090;28;20025;-69
2021/08/24 04:38:00;;;;;;;4.15;3.42;;;14.20;99.90;;;;;;2065172;28;20026;-69
2021/08/24 04:39:01;;;;;;;6.25;4.32;;;14.20;99.90;;;;;;2065295;28;20052;-69
2021/08/24 04:40:02;;;;;;;6.57;4.53;;;14.20;99.90;;;;;;2064903;28;20065;-69
2021/08/24 04:41:04;;;;;;;5.85;4.28;;;14.20;99.90;;;;;;2067046;28;20502;-69
2021/08/24 04:42:04;;;;;;;3.92;3.63;;;14.20;99.90;;;;;;2071388;28;20026;-69
2021/08/24 04:43:05;;;;;;;5.65;4.22;;;14.20;99.90;;;;;;2071603;28;20026;-69
2021/08/24 04:44:06;;;;;;;5.57;4.60;;;14.20;99.90;;;;;;2071791;28;20030;-70
2021/08/24 04:45:07;;;;;;;5.43;4.13;;;14.10;99.90;;;;;;2071445;28;20079;-69
2021/08/24 04:46:08;;;;;;;5.40;4.45;;;14.20;99.90;;;;;;2071726;28;20051;-69
2021/08/24 04:47:09;;;;;;;6.63;4.53;;;14.20;99.90;;;;;;2071644;28;20021;-69
2021/08/24 04:48:10;;;;;;;3.97;3.58;;;14.20;99.90;;;;;;2071632;28;20076;-69
2021/08/24 04:49:10;;;;;;;5.90;4.20;;;14.20;99.90;;;;;;2071263;28;20128;-69
2021/08/24 04:50:11;;;;;;;4.80;4.40;;;14.20;99.90;;;;;;2071112;28;20051;-69
2021/08/24 04:51:11;;;;;;;4.65;4.25;;;14.20;99.90;;;;;;2071621;28;20026;-69
2021/08/24 04:52:12;;;;;;;4.10;3.80;;;14.20;99.90;;;;;;2071701;28;20025;-69
2021/08/24 04:53:13;;;;;;;5.07;4.25;;;14.20;99.90;;;;;;2071086;28;20050;-69
2021/08/24 04:54:13;;;;;;;6.72;3.90;;;14.20;99.90;;;;;;2070685;28;20022;-69
2021/08/24 04:55:14;;;;;;;3.72;3.42;;;14.20;99.90;;;;;;2069921;28;20034;-69
2021/08/24 04:56:14;;;;;;;5.10;4.50;;;14.20;99.90;;;;;;2066504;28;20018;-69
2021/08/24 04:57:15;;;;;;;4.68;3.90;;;14.20;99.90;;;;;;2068177;28;20018;-69
2021/08/24 04:58:16;;;;;;;5.45;4.40;;;14.10;99.90;;;;;;2068339;28;20025;-69
2021/08/24 04:59:16;;;;;;;7.28;5.78;;;14.10;99.90;;;;;;2066104;28;20521;-69
2021/08/24 05:00:17;;;;;;;5.07;4.57;;;14.20;99.90;;;;;;2066818;28;20018;-69
2021/08/24 05:01:18;;;;;;;6.35;4.75;;;14.20;99.90;;;;;;2068772;28;20057;-69
2021/08/24 05:02:20;;;;;;;6.65;5.78;;;14.20;99.90;;;;;;2070467;28;20025;-69
2021/08/24 05:03:21;;;;;;;7.95;5.50;;;14.10;99.90;;;;;;2070671;28;20025;-69
2021/08/24 05:04:22;;;;;;;5.38;4.88;;;14.20;99.90;;;;;;2071385;28;20065;-69
2021/08/24 05:05:23;;;;;;;6.00;4.68;;;14.20;99.90;;;;;;2071884;28;20014;-69
2021/08/24 05:06:24;;;;;;;5.88;4.40;;;14.10;99.90;;;;;;2071429;28;20462;-69
2021/08/24 05:07:24;;;;;;;5.15;4.70;;;14.20;99.90;;;;;;2071498;28;21628;-69
2021/08/24 05:08:25;;;;;;;7.95;6.38;;;14.20;99.90;;;;;;2071905;28;20022;-69
2021/08/24 05:09:25;;;;;;;4.40;4.00;;;14.20;99.90;;;;;;2073333;28;20397;-69
2021/08/24 05:10:26;;;;;;;6.10;4.72;;;14.20;99.90;;;;;;2071195;28;20026;-69
2021/08/24 05:11:26;;;;;;;6.25;4.80;;;14.20;99.90;;;;;;2071145;28;20469;-69
2021/08/24 05:12:27;;;;;;;7.65;3.90;;;14.20;99.90;;;;;;2071479;28;20041;-69
2021/08/24 05:13:28;;;;;;;10.02;5.47;;;14.20;99.90;;;;;;2071338;28;20486;-69
2021/08/24 05:14:28;;;;;;;6.40;5.80;;;14.20;99.90;;;;;;2071157;28;20038;-69
2021/08/24 05:15:30;;;;;;;5.55;4.82;;;14.30;99.90;;;;;;2071472;28;20105;-69
2021/08/24 05:16:31;;;;;;;6.70;6.03;;;14.20;99.90;;;;;;2071646;28;20026;-69
2021/08/24 05:17:31;;;;;;;8.27;5.38;;;14.30;99.90;;;;;;2071612;28;20097;-69
2021/08/24 05:18:32;;;;;;;7.28;5.95;;;14.30;99.90;;;;;;2071455;28;20438;-69
2021/08/24 05:19:32;;;;;;;6.78;5.68;;;14.30;99.90;;;;;;2071643;28;20050;-69
2021/08/24 05:20:33;;;;;;;9.52;7.28;;;14.30;99.90;;;;;;2071532;28;20065;-69
2021/08/24 05:21:34;;;;;;;11.35;8.15;;;14.30;99.90;;;;;;2071355;28;20389;-69
2021/08/24 05:22:35;;;;;;;11.90;8.35;;;14.30;99.90;;;;;;2075330;28;20041;-69
2021/08/24 05:23:37;;;;;;;10.15;7.43;;;14.30;99.90;;;;;;2077993;28;20060;-69
2021/08/24 05:24:37;;;;;;;9.18;7.07;;;14.40;99.90;;;;;;2071518;28;20359;-69
2021/08/24 05:25:38;;;;;;;8.80;7.35;;;14.40;99.90;;;;;;2071600;28;20036;-69
2021/08/24 05:26:38;;;;;;;10.55;8.15;;;14.40;99.90;;;;;;2071398;28;20033;-69
2021/08/24 05:27:39;;;;;;;8.68;7.75;;;14.40;99.90;;;;;;2071759;28;20044;-69
2021/08/24 05:28:40;;;;;;;9.40;8.35;;;14.50;99.90;;;;;;2071235;28;20487;-69
2021/08/24 05:29:41;;;;;;;9.27;8.23;;;14.50;99.90;;;;;;2071495;28;20044;-69
2021/08/24 05:30:41;;;;;;;9.32;7.72;;;14.50;99.90;;;;;;2071402;28;20381;-69
2021/08/24 05:31:43;;;;;;;8.80;7.90;;;14.50;99.90;;;;;;2071407;28;20022;-69
2021/08/24 05:32:43;;;;;;;9.90;8.48;;;14.50;99.90;;;;;;2071135;28;20571;-69
2021/08/24 05:33:44;;;;;;;10.00;8.23;;;14.60;99.90;;;;;;2071391;28;20115;-69
2021/08/24 05:34:44;;;;;;;12.10;8.55;;;14.60;99.90;;;;;;2071712;28;20083;-69
2021/08/24 05:35:45;;;;;;;9.20;8.00;;;14.70;99.90;;;;;;2071595;28;20529;-69
2021/08/24 05:36:46;;;;;;;11.52;7.93;;;14.70;99.90;;;;;;2074847;28;20514;-69
2021/08/24 05:37:48;;;;;;;9.70;7.82;;;14.70;99.90;;;;;;2071379;28;20057;-69
2021/08/24 05:38:48;;;;;;;13.27;8.60;;;14.80;99.90;;;;;;2071485;28;20022;-69
2021/08/24 05:39:49;;;;;;;10.27;8.30;;;14.80;99.90;;;;;;2071435;28;20018;-69